Time;durP1;ratioP1;P1;durP2;ratioP2;P2;SDS_P1;SDS_P2;PMS_P1;PMS_P2;Temp;Humidity;BMP_temperature;BMP_pressure;BME280_temperature;BME280_humidity;BME280_pressure;Samples;Min_cycle;Max_cycle;Signal;HPM_P1;HPM_P2
2020/03/07 00:01:00;;;;;;;2.40;2.20;;;;;;;18.87;39.71;99938.38;;;;-54
2020/03/07 00:04:00;;;;;;;2.43;2.23;;;;;;;18.85;39.75;99941.52;;;;-54
2020/03/07 00:07:00;;;;;;;2.74;2.19;;;;;;;18.83;39.75;99949.06;;;;-54
2020/03/07 00:10:00;;;;;;;2.26;2.06;;;;;;;18.83;39.74;99960.11;;;;-54
2020/03/07 00:13:00;;;;;;;2.25;2.05;;;;;;;18.82;39.74;99959.77;;;;-53
2020/03/07 00:16:00;;;;;;;2.40;2.20;;;;;;;18.80;39.75;99960.22;;;;-54
2020/03/07 00:19:00;;;;;;;2.36;2.15;;;;;;;18.78;39.75;99964.66;;;;-55
2020/03/07 00:22:00;;;;;;;2.40;2.20;;;;;;;18.77;39.83;99966.62;;;;-54
2020/03/07 00:25:00;;;;;;;2.20;2.00;;;;;;;18.76;39.83;99971.17;;;;-54
2020/03/07 00:28:00;;;;;;;2.30;2.10;;;;;;;18.75;39.79;99981.09;;;;-54
2020/03/07 00:31:00;;;;;;;2.32;2.12;;;;;;;18.74;39.80;99994.28;;;;-54
2020/03/07 00:34:00;;;;;;;2.77;2.09;;;;;;;18.73;39.81;99993.23;;;;-54
2020/03/07 00:37:00;;;;;;;2.26;2.02;;;;;;;18.71;39.82;99995.27;;;;-53
2020/03/07 00:40:00;;;;;;;2.10;1.90;;;;;;;18.70;39.82;100001.64;;;;-54
2020/03/07 00:43:00;;;;;;;2.21;2.01;;;;;;;18.69;39.87;99999.93;;;;-54
2020/03/07 00:46:00;;;;;;;2.26;2.06;;;;;;;18.67;39.86;100001.80;;;;-54
2020/03/07 00:49:00;;;;;;;2.60;2.10;;;;;;;18.66;39.86;100005.77;;;;-53
2020/03/07 00:52:00;;;;;;;2.23;2.03;;;;;;;18.66;39.89;100011.18;;;;-54
2020/03/07 00:55:00;;;;;;;2.06;1.89;;;;;;;18.64;39.87;100016.28;;;;-54
2020/03/07 00:58:00;;;;;;;2.32;2.12;;;;;;;18.63;39.90;100020.46;;;;-55
2020/03/07 01:01:00;;;;;;;2.17;1.97;;;;;;;18.63;39.88;100021.03;;;;-54
2020/03/07 01:04:00;;;;;;;2.31;2.11;;;;;;;18.61;39.90;100021.88;;;;-54
2020/03/07 01:07:00;;;;;;;2.20;2.00;;;;;;;18.60;39.91;100024.91;;;;-54
2020/03/07 01:10:00;;;;;;;2.43;2.07;;;;;;;18.59;39.90;100023.53;;;;-54
2020/03/07 01:13:00;;;;;;;2.18;1.98;;;;;;;18.58;39.93;100026.45;;;;-54
2020/03/07 01:16:00;;;;;;;2.11;1.90;;;;;;;18.58;39.93;100034.77;;;;-54
2020/03/07 01:19:00;;;;;;;2.15;2.02;;;;;;;18.56;39.93;100032.78;;;;-54
2020/03/07 01:22:00;;;;;;;2.18;2.00;;;;;;;18.55;39.92;100036.25;;;;-54
2020/03/07 01:25:00;;;;;;;2.09;1.91;;;;;;;18.54;39.95;100036.38;;;;-54
2020/03/07 01:28:00;;;;;;;1.97;1.84;;;;;;;18.53;39.95;100040.08;;;;-54
2020/03/07 01:31:00;;;;;;;2.22;2.00;;;;;;;18.52;39.95;100045.59;;;;-54
2020/03/07 01:34:00;;;;;;;2.06;1.91;;;;;;;18.52;39.93;100046.55;;;;-53
2020/03/07 01:37:00;;;;;;;2.33;1.96;;;;;;;18.50;39.98;100051.49;;;;-54
2020/03/07 01:40:00;;;;;;;2.10;1.90;;;;;;;18.49;39.96;100057.23;;;;-54
2020/03/07 01:43:00;;;;;;;2.29;1.93;;;;;;;18.48;40.01;100064.15;;;;-54
2020/03/07 01:46:00;;;;;;;2.05;1.95;;;;;;;18.46;40.00;100066.64;;;;-53
2020/03/07 01:49:00;;;;;;;2.00;1.83;;;;;;;18.45;39.96;100068.94;;;;-54
2020/03/07 01:52:00;;;;;;;2.18;1.98;;;;;;;18.46;39.98;100077.94;;;;-54
2020/03/07 01:55:00;;;;;;;2.09;1.89;;;;;;;18.45;40.00;100084.66;;;;-54
2020/03/07 01:58:00;;;;;;;2.07;1.90;;;;;;;18.42;40.00;100085.30;;;;-54
2020/03/07 02:01:00;;;;;;;2.10;1.90;;;;;;;18.43;40.01;100092.92;;;;-54
2020/03/07 02:04:00;;;;;;;2.45;2.00;;;;;;;18.42;40.01;100096.91;;;;-54
2020/03/07 02:07:00;;;;;;;2.11;1.91;;;;;;;18.41;40.01;100102.97;;;;-54
2020/03/07 02:10:00;;;;;;;2.31;1.93;;;;;;;18.40;40.05;100110.12;;;;-54
2020/03/07 02:13:00;;;;;;;1.97;1.82;;;;;;;18.39;40.03;100107.41;;;;-54
2020/03/07 02:16:00;;;;;;;1.90;1.80;;;;;;;18.38;40.05;100110.54;;;;-54
2020/03/07 02:19:00;;;;;;;2.02;1.89;;;;;;;18.37;40.05;100113.51;;;;-54
2020/03/07 02:22:00;;;;;;;1.89;1.79;;;;;;;18.37;40.05;100113.17;;;;-55
2020/03/07 02:25:00;;;;;;;2.28;1.82;;;;;;;18.36;40.03;100110.02;;;;-54
2020/03/07 02:28:00;;;;;;;2.10;1.90;;;;;;;18.34;40.02;100112.54;;;;-54
2020/03/07 02:31:00;;;;;;;2.08;1.91;;;;;;;18.34;40.04;100118.39;;;;-54
2020/03/07 02:34:00;;;;;;;2.03;1.87;;;;;;;18.34;40.04;100125.74;;;;-55
2020/03/07 02:37:00;;;;;;;1.89;1.69;;;;;;;18.33;40.05;100130.81;;;;-54
2020/03/07 02:40:00;;;;;;;2.03;1.80;;;;;;;18.32;40.04;100140.80;;;;-54
2020/03/07 02:46:16;;;;;;;2.12;1.93;;;;;;;18.30;40.05;100147.23;;;;-55
2020/03/07 02:49:16;;;;;;;1.90;1.80;;;;;;;18.29;40.05;100154.98;;;;-54
2020/03/07 02:52:16;;;;;;;1.99;1.89;;;;;;;18.28;40.07;100159.18;;;;-54
2020/03/07 02:55:16;;;;;;;2.11;1.91;;;;;;;18.28;40.07;100159.08;;;;-54
2020/03/07 02:58:16;;;;;;;2.05;1.85;;;;;;;18.26;40.05;100164.27;;;;-53
2020/03/07 03:01:16;;;;;;;2.14;1.91;;;;;;;18.26;40.09;100167.89;;;;-54
2020/03/07 03:04:16;;;;;;;2.09;1.81;;;;;;;18.25;40.08;100169.52;;;;-54
2020/03/07 03:07:16;;;;;;;1.87;1.75;;;;;;;18.25;40.06;100170.54;;;;-53
2020/03/07 03:10:16;;;;;;;1.89;1.77;;;;;;;18.23;40.08;100171.80;;;;-53
2020/03/07 03:13:16;;;;;;;1.85;1.71;;;;;;;18.22;40.07;100175.70;;;;-54
2020/03/07 03:16:16;;;;;;;1.89;1.79;;;;;;;18.22;40.10;100179.20;;;;-54
2020/03/07 03:19:16;;;;;;;1.85;1.75;;;;;;;18.21;40.07;100179.83;;;;-54
2020/03/07 03:22:16;;;;;;;1.85;1.73;;;;;;;18.21;40.06;100183.97;;;;-56
2020/03/07 03:25:16;;;;;;;1.97;1.79;;;;;;;18.20;40.09;100181.62;;;;-53
2020/03/07 03:28:16;;;;;;;1.73;1.63;;;;;;;18.19;40.07;100183.25;;;;-53
2020/03/07 03:31:16;;;;;;;1.77;1.67;;;;;;;18.19;40.10;100190.34;;;;-54
2020/03/07 03:34:16;;;;;;;2.14;1.87;;;;;;;18.18;40.09;100197.54;;;;-54
2020/03/07 03:37:16;;;;;;;1.77;1.67;;;;;;;18.17;40.12;100200.94;;;;-54
2020/03/07 03:40:22;;;;;;;1.80;1.70;;;;;;;18.17;40.12;100197.66;;;;-54
2020/03/07 03:43:16;;;;;;;1.75;1.65;;;;;;;18.16;40.11;100203.16;;;;-53
2020/03/07 03:46:16;;;;;;;1.87;1.77;;;;;;;18.16;40.11;100209.25;;;;-54
2020/03/07 03:49:16;;;;;;;1.85;1.70;;;;;;;18.14;40.10;100207.09;;;;-54
2020/03/07 03:55:15;;;;;;;1.89;1.78;;;;;;;18.13;40.12;100216.90;;;;-54
2020/03/07 03:58:16;;;;;;;1.84;1.74;;;;;;;18.12;40.06;100224.11;;;;-54
2020/03/07 04:01:16;;;;;;;1.80;1.70;;;;;;;18.11;40.10;100227.91;;;;-54
2020/03/07 04:04:16;;;;;;;1.71;1.61;;;;;;;18.11;40.07;100233.92;;;;-54
2020/03/07 04:07:16;;;;;;;1.68;1.58;;;;;;;18.11;40.12;100242.77;;;;-54
2020/03/07 04:10:16;;;;;;;1.69;1.59;;;;;;;18.09;40.10;100247.13;;;;-54
2020/03/07 04:13:16;;;;;;;1.79;1.69;;;;;;;18.08;40.18;100254.44;;;;-54
2020/03/07 04:16:16;;;;;;;1.80;1.70;;;;;;;18.08;40.10;100262.85;;;;-54
2020/03/07 04:19:16;;;;;;;1.64;1.54;;;;;;;18.07;40.12;100270.44;;;;-54
2020/03/07 04:22:16;;;;;;;1.80;1.70;;;;;;;18.06;40.13;100274.63;;;;-54
2020/03/07 04:25:16;;;;;;;1.70;1.60;;;;;;;18.05;40.11;100283.20;;;;-54
2020/03/07 04:28:16;;;;;;;1.70;1.60;;;;;;;18.05;40.12;100286.04;;;;-54
2020/03/07 04:31:16;;;;;;;1.75;1.65;;;;;;;18.04;40.11;100291.35;;;;-54
2020/03/07 04:34:16;;;;;;;1.67;1.57;;;;;;;18.04;40.13;100299.80;;;;-54
2020/03/07 04:37:16;;;;;;;1.63;1.53;;;;;;;18.03;40.11;100306.66;;;;-54
2020/03/07 04:40:16;;;;;;;1.89;1.79;;;;;;;18.03;40.09;100311.41;;;;-53
2020/03/07 04:43:16;;;;;;;1.70;1.60;;;;;;;18.03;40.09;100315.96;;;;-54
2020/03/07 04:46:16;;;;;;;1.83;1.72;;;;;;;18.02;40.06;100316.14;;;;-54
2020/03/07 04:49:16;;;;;;;1.79;1.66;;;;;;;18.04;40.09;100321.98;;;;-54
2020/03/07 04:52:16;;;;;;;1.71;1.61;;;;;;;18.04;40.07;100327.27;;;;-54
2020/03/07 04:55:16;;;;;;;1.81;1.71;;;;;;;18.05;40.05;100333.84;;;;-54
2020/03/07 04:58:16;;;;;;;1.66;1.56;;;;;;;18.07;40.03;100337.88;;;;-54
2020/03/07 05:01:16;;;;;;;1.69;1.50;;;;;;;18.09;40.03;100343.45;;;;-54
2020/03/07 05:04:16;;;;;;;1.70;1.60;;;;;;;18.11;40.06;100342.88;;;;-53
2020/03/07 05:07:16;;;;;;;1.75;1.60;;;;;;;18.13;40.02;100348.33;;;;-53
2020/03/07 05:10:16;;;;;;;1.57;1.47;;;;;;;18.17;40.07;100353.09;;;;-53
2020/03/07 05:13:16;;;;;;;1.70;1.60;;;;;;;18.21;39.96;100358.07;;;;-53
2020/03/07 05:16:16;;;;;;;1.57;1.47;;;;;;;18.24;39.91;100362.76;;;;-53
2020/03/07 05:19:16;;;;;;;1.67;1.57;;;;;;;18.27;39.96;100367.81;;;;-54
2020/03/07 05:22:16;;;;;;;1.60;1.50;;;;;;;18.34;40.10;100373.23;;;;-53
2020/03/07 05:25:16;;;;;;;1.78;1.67;;;;;;;18.36;39.99;100372.86;;;;-54
2020/03/07 05:28:16;;;;;;;1.60;1.50;;;;;;;18.39;39.93;100371.73;;;;-54
2020/03/07 05:31:16;;;;;;;1.53;1.43;;;;;;;18.44;40.06;100382.73;;;;-53
2020/03/07 05:34:16;;;;;;;1.57;1.46;;;;;;;18.47;40.07;100388.67;;;;-54
2020/03/07 05:37:16;;;;;;;1.57;1.47;;;;;;;18.52;40.15;100397.23;;;;-54
2020/03/07 05:40:16;;;;;;;1.60;1.50;;;;;;;18.55;40.22;100398.04;;;;-54
2020/03/07 05:43:16;;;;;;;1.60;1.50;;;;;;;18.58;39.96;100402.14;;;;-54
2020/03/07 05:46:16;;;;;;;1.75;1.57;;;;;;;18.63;40.18;100410.00;;;;-54
2020/03/07 05:49:16;;;;;;;1.90;1.50;;;;;;;18.65;40.02;100416.23;;;;-54
2020/03/07 05:52:16;;;;;;;1.63;1.53;;;;;;;18.69;40.11;100427.23;;;;-54
2020/03/07 05:55:16;;;;;;;1.77;1.54;;;;;;;18.71;40.10;100437.94;;;;-53
2020/03/07 05:58:16;;;;;;;1.71;1.61;;;;;;;18.74;40.12;100441.33;;;;-54
2020/03/07 06:01:16;;;;;;;1.72;1.59;;;;;;;18.75;40.09;100449.27;;;;-54
2020/03/07 06:04:16;;;;;;;1.59;1.48;;;;;;;18.81;40.00;100454.70;;;;-53
2020/03/07 06:07:16;;;;;;;1.60;1.50;;;;;;;18.81;40.09;100462.11;;;;-54
2020/03/07 06:10:16;;;;;;;1.60;1.50;;;;;;;18.85;40.03;100469.38;;;;-54
2020/03/07 06:13:16;;;;;;;1.60;1.50;;;;;;;18.85;40.02;100470.72;;;;-54
2020/03/07 06:16:16;;;;;;;1.72;1.62;;;;;;;18.87;39.99;100477.78;;;;-53
2020/03/07 06:19:16;;;;;;;1.63;1.53;;;;;;;18.91;40.00;100486.47;;;;-54
2020/03/07 06:22:16;;;;;;;1.50;1.40;;;;;;;18.90;39.87;100493.45;;;;-54
2020/03/07 06:25:16;;;;;;;1.73;1.57;;;;;;;18.94;39.98;100495.58;;;;-55
2020/03/07 06:28:16;;;;;;;1.65;1.50;;;;;;;18.94;39.93;100500.50;;;;-54
2020/03/07 06:31:16;;;;;;;1.60;1.50;;;;;;;18.96;39.90;100506.95;;;;-53
2020/03/07 06:34:16;;;;;;;2.18;1.52;;;;;;;18.96;39.93;100507.18;;;;-54
2020/03/07 06:37:16;;;;;;;1.71;1.60;;;;;;;18.96;39.83;100515.89;;;;-53
2020/03/07 06:40:16;;;;;;;1.59;1.49;;;;;;;18.99;39.81;100525.50;;;;-54
2020/03/07 06:43:16;;;;;;;2.11;1.50;;;;;;;19.02;39.81;100531.67;;;;-53
2020/03/07 06:46:16;;;;;;;1.63;1.51;;;;;;;19.02;39.72;100538.20;;;;-54
2020/03/07 06:49:16;;;;;;;1.63;1.53;;;;;;;19.04;39.66;100544.55;;;;-53
2020/03/07 06:52:16;;;;;;;1.61;1.51;;;;;;;19.04;39.73;100549.41;;;;-54
2020/03/07 06:55:16;;;;;;;1.61;1.50;;;;;;;19.05;39.64;100559.73;;;;-54
2020/03/07 06:58:16;;;;;;;1.85;1.60;;;;;;;19.06;39.66;100563.90;;;;-55
2020/03/07 07:01:16;;;;;;;1.95;1.54;;;;;;;19.07;39.63;100562.84;;;;-54
2020/03/07 07:04:16;;;;;;;1.57;1.47;;;;;;;19.08;39.67;100566.41;;;;-54
2020/03/07 07:07:16;;;;;;;1.65;1.55;;;;;;;19.09;39.60;100569.56;;;;-54
2020/03/07 07:10:16;;;;;;;1.56;1.46;;;;;;;19.11;39.64;100575.25;;;;-54
2020/03/07 07:13:16;;;;;;;1.54;1.44;;;;;;;19.11;39.53;100577.13;;;;-54
2020/03/07 07:16:16;;;;;;;2.29;1.70;;;;;;;19.14;39.62;100587.04;;;;-54
2020/03/07 07:19:16;;;;;;;1.62;1.51;;;;;;;19.13;39.58;100589.31;;;;-54
2020/03/07 07:22:16;;;;;;;1.69;1.59;;;;;;;19.15;39.49;100593.72;;;;-53
2020/03/07 07:25:16;;;;;;;2.18;1.63;;;;;;;19.16;39.52;100603.98;;;;-54
2020/03/07 07:28:16;;;;;;;1.88;1.60;;;;;;;19.16;39.46;100607.94;;;;-62
2020/03/07 07:31:16;;;;;;;1.85;1.74;;;;;;;19.17;39.45;100614.34;;;;-61
2020/03/07 07:34:16;;;;;;;1.90;1.60;;;;;;;19.18;39.44;100615.53;;;;-61
2020/03/07 07:37:16;;;;;;;1.64;1.51;;;;;;;19.17;39.43;100612.56;;;;-61
2020/03/07 07:40:16;;;;;;;1.72;1.60;;;;;;;19.18;39.45;100621.77;;;;-61
2020/03/07 07:43:16;;;;;;;2.26;1.57;;;;;;;19.19;39.40;100631.70;;;;-61
2020/03/07 07:46:16;;;;;;;1.53;1.43;;;;;;;19.21;39.45;100639.89;;;;-61
2020/03/07 07:49:16;;;;;;;2.47;1.71;;;;;;;19.21;39.35;100641.06;;;;-61
2020/03/07 07:52:16;;;;;;;1.89;1.72;;;;;;;19.22;39.37;100652.32;;;;-61
2020/03/07 07:55:16;;;;;;;1.62;1.51;;;;;;;19.21;39.34;100655.39;;;;-61
2020/03/07 07:58:16;;;;;;;1.69;1.59;;;;;;;19.21;39.38;100661.42;;;;-61
2020/03/07 08:01:16;;;;;;;1.73;1.61;;;;;;;19.21;39.31;100664.84;;;;-61
2020/03/07 08:04:16;;;;;;;2.23;1.62;;;;;;;19.22;39.33;100670.18;;;;-61
2020/03/07 08:07:16;;;;;;;1.71;1.61;;;;;;;19.21;39.32;100672.97;;;;-61
2020/03/07 08:10:16;;;;;;;1.82;1.65;;;;;;;19.22;39.27;100678.72;;;;-60
2020/03/07 08:13:16;;;;;;;1.70;1.60;;;;;;;19.23;39.28;100685.97;;;;-61
2020/03/07 08:16:15;;;;;;;1.73;1.60;;;;;;;19.25;39.26;100690.31;;;;-61
2020/03/07 08:19:16;;;;;;;1.71;1.58;;;;;;;19.25;39.29;100697.17;;;;-61
2020/03/07 08:22:16;;;;;;;1.92;1.69;;;;;;;19.25;39.34;100702.98;;;;-61
2020/03/07 08:25:16;;;;;;;1.85;1.73;;;;;;;19.26;39.31;100710.45;;;;-62
2020/03/07 08:28:16;;;;;;;2.31;1.69;;;;;;;19.26;39.30;100716.48;;;;-62
2020/03/07 08:31:16;;;;;;;1.79;1.62;;;;;;;19.26;39.25;100723.34;;;;-61
2020/03/07 08:34:16;;;;;;;1.88;1.75;;;;;;;19.27;39.24;100726.02;;;;-61
2020/03/07 08:37:16;;;;;;;2.04;1.81;;;;;;;19.29;39.26;100735.12;;;;-61
2020/03/07 08:40:16;;;;;;;2.07;1.63;;;;;;;19.28;39.19;100738.69;;;;-61
2020/03/07 08:43:16;;;;;;;2.17;1.77;;;;;;;19.29;39.25;100744.03;;;;-61
2020/03/07 08:46:16;;;;;;;2.14;1.69;;;;;;;19.29;39.24;100744.59;;;;-61
2020/03/07 08:49:16;;;;;;;1.83;1.69;;;;;;;19.30;39.23;100751.51;;;;-62
2020/03/07 08:52:16;;;;;;;2.17;1.76;;;;;;;19.30;39.25;100749.51;;;;-61
2020/03/07 08:55:16;;;;;;;2.24;1.67;;;;;;;19.31;39.18;100753.58;;;;-61
2020/03/07 08:58:16;;;;;;;1.95;1.72;;;;;;;19.31;39.14;100756.25;;;;-60
2020/03/07 09:01:16;;;;;;;2.37;1.66;;;;;;;19.31;39.17;100763.06;;;;-61
2020/03/07 09:04:16;;;;;;;1.80;1.70;;;;;;;19.33;39.20;100766.56;;;;-61
2020/03/07 09:07:16;;;;;;;1.70;1.60;;;;;;;19.32;39.15;100764.95;;;;-49
2020/03/07 09:10:16;;;;;;;1.93;1.69;;;;;;;19.33;39.17;100764.50;;;;-49
2020/03/07 09:13:16;;;;;;;1.90;1.70;;;;;;;19.34;39.26;100769.91;;;;-52
2020/03/07 09:16:16;;;;;;;1.91;1.75;;;;;;;19.36;39.48;100771.52;;;;-52
2020/03/07 09:19:16;;;;;;;2.58;1.95;;;;;;;19.38;39.56;100770.34;;;;-51
2020/03/07 09:22:16;;;;;;;2.21;1.83;;;;;;;19.40;39.89;100769.43;;;;-45
2020/03/07 09:25:16;;;;;;;4.81;1.95;;;;;;;19.44;40.13;100777.97;;;;-41
2020/03/07 09:28:16;;;;;;;3.42;2.06;;;;;;;19.46;40.27;100778.00;;;;-46
2020/03/07 09:31:16;;;;;;;3.02;2.30;;;;;;;19.48;40.08;100776.66;;;;-51
2020/03/07 09:34:16;;;;;;;5.44;2.48;;;;;;;19.49;39.91;100774.90;;;;-47
2020/03/07 09:37:16;;;;;;;4.21;2.19;;;;;;;19.52;39.77;100778.47;;;;-44
2020/03/07 09:40:16;;;;;;;3.65;2.35;;;;;;;19.53;40.27;100775.67;;;;-50
2020/03/07 09:43:16;;;;;;;5.67;2.02;;;;;;;19.56;40.08;100775.20;;;;-50
2020/03/07 09:46:16;;;;;;;5.12;1.95;;;;;;;19.57;39.92;100777.95;;;;-52
2020/03/07 09:49:16;;;;;;;3.48;2.14;;;;;;;19.58;40.14;100776.14;;;;-47
2020/03/07 09:52:16;;;;;;;3.05;1.80;;;;;;;19.60;40.18;100780.10;;;;-47
2020/03/07 09:55:16;;;;;;;4.40;1.98;;;;;;;19.59;40.29;100775.36;;;;-49
2020/03/07 09:58:16;;;;;;;2.33;1.83;;;;;;;19.60;40.24;100778.09;;;;-50
2020/03/07 10:01:17;;;;;;;2.08;1.88;;;;;;;19.61;40.22;100779.41;;;;-44
2020/03/07 10:04:16;;;;;;;2.46;1.81;;;;;;;19.62;40.24;100780.19;;;;-46
2020/03/07 10:07:16;;;;;;;3.17;1.84;;;;;;;19.63;40.13;100785.10;;;;-52
2020/03/07 10:10:16;;;;;;;3.88;1.98;;;;;;;19.63;40.16;100788.23;;;;-49
2020/03/07 10:13:16;;;;;;;3.17;2.03;;;;;;;19.65;40.30;100797.77;;;;-47
2020/03/07 10:16:17;;;;;;;2.79;1.65;;;;;;;19.66;40.24;100800.83;;;;-50
2020/03/07 10:19:16;;;;;;;5.01;1.85;;;;;;;19.67;40.39;100804.23;;;;-51
2020/03/07 10:22:16;;;;;;;3.18;1.77;;;;;;;19.67;39.93;100806.31;;;;-50
2020/03/07 10:25:16;;;;;;;2.47;1.84;;;;;;;19.68;40.25;100809.71;;;;-51
2020/03/07 10:28:16;;;;;;;2.31;1.85;;;;;;;19.69;40.00;100810.83;;;;-53
2020/03/07 10:31:16;;;;;;;3.73;1.76;;;;;;;19.69;40.06;100809.47;;;;-52
2020/03/07 10:34:16;;;;;;;2.86;1.69;;;;;;;19.71;40.39;100816.79;;;;-53
2020/03/07 10:37:16;;;;;;;3.09;2.00;;;;;;;19.72;40.28;100822.14;;;;-51
2020/03/07 10:40:16;;;;;;;5.98;1.87;;;;;;;19.72;40.34;100824.86;;;;-52
2020/03/07 10:43:16;;;;;;;4.71;1.98;;;;;;;19.72;40.29;100827.61;;;;-52
2020/03/07 10:46:16;;;;;;;5.03;1.79;;;;;;;19.73;40.12;100833.02;;;;-51
2020/03/07 10:49:16;;;;;;;4.71;3.12;;;;;;;19.53;38.54;100835.88;;;;-45
2020/03/07 10:52:16;;;;;;;6.14;3.80;;;;;;;19.32;37.81;100847.23;;;;-46
2020/03/07 10:55:16;;;;;;;6.32;4.06;;;;;;;19.17;37.32;100848.30;;;;-47
2020/03/07 10:58:16;;;;;;;6.75;3.53;;;;;;;19.27;38.28;100851.50;;;;-51
2020/03/07 11:01:16;;;;;;;3.99;2.96;;;;;;;19.35;38.57;100848.46;;;;-52
2020/03/07 11:04:16;;;;;;;3.94;2.66;;;;;;;19.40;38.82;100845.59;;;;-53
2020/03/07 11:07:16;;;;;;;3.92;2.71;;;;;;;19.45;39.04;100847.47;;;;-57
2020/03/07 11:10:16;;;;;;;2.91;2.20;;;;;;;19.50;39.10;100851.08;;;;-56
2020/03/07 11:13:16;;;;;;;5.20;2.47;;;;;;;19.54;39.18;100850.59;;;;-52
2020/03/07 11:16:16;;;;;;;3.47;2.44;;;;;;;19.58;39.28;100854.72;;;;-53
2020/03/07 11:19:16;;;;;;;4.70;2.30;;;;;;;19.61;39.27;100852.19;;;;-50
2020/03/07 11:22:16;;;;;;;4.23;2.20;;;;;;;19.65;39.46;100847.53;;;;-51
2020/03/07 11:25:16;;;;;;;3.72;2.25;;;;;;;19.69;39.46;100843.65;;;;-55
2020/03/07 11:28:16;;;;;;;2.82;2.17;;;;;;;19.73;39.18;100841.57;;;;-53
2020/03/07 11:31:16;;;;;;;2.30;2.06;;;;;;;19.75;39.05;100837.64;;;;-57
2020/03/07 11:34:16;;;;;;;3.65;2.23;;;;;;;19.78;38.93;100839.20;;;;-57
2020/03/07 11:37:16;;;;;;;2.41;2.10;;;;;;;19.80;38.84;100838.05;;;;-57
2020/03/07 11:40:16;;;;;;;4.85;2.23;;;;;;;19.80;38.76;100834.11;;;;-57
2020/03/07 11:43:16;;;;;;;4.21;2.13;;;;;;;19.82;38.75;100833.52;;;;-57
2020/03/07 11:46:16;;;;;;;2.75;2.11;;;;;;;19.83;38.71;100834.08;;;;-56
2020/03/07 11:49:16;;;;;;;3.33;1.95;;;;;;;19.83;38.60;100833.17;;;;-57
2020/03/07 11:52:16;;;;;;;3.30;2.11;;;;;;;19.85;38.68;100836.02;;;;-57
2020/03/07 11:55:16;;;;;;;2.12;1.92;;;;;;;19.87;38.64;100839.14;;;;-57
2020/03/07 11:58:16;;;;;;;2.51;1.87;;;;;;;19.86;38.50;100844.56;;;;-56
2020/03/07 12:01:16;;;;;;;2.61;1.98;;;;;;;19.88;38.52;100839.75;;;;-57
2020/03/07 12:04:16;;;;;;;2.86;2.01;;;;;;;19.90;38.58;100843.80;;;;-56
2020/03/07 12:07:16;;;;;;;2.39;1.99;;;;;;;19.92;38.56;100845.81;;;;-57
2020/03/07 12:10:16;;;;;;;2.57;1.90;;;;;;;19.94;38.56;100848.77;;;;-57
2020/03/07 12:13:16;;;;;;;2.87;2.11;;;;;;;19.98;38.54;100846.78;;;;-57
2020/03/07 12:16:16;;;;;;;2.45;1.90;;;;;;;19.98;38.51;100848.02;;;;-56
2020/03/07 12:19:16;;;;;;;2.34;1.91;;;;;;;19.99;38.47;100852.73;;;;-57
2020/03/07 12:22:16;;;;;;;3.47;2.27;;;;;;;19.99;38.38;100854.30;;;;-57
2020/03/07 12:25:16;;;;;;;2.16;1.91;;;;;;;20.01;38.47;100852.27;;;;-57
2020/03/07 12:28:16;;;;;;;2.43;1.80;;;;;;;20.02;38.39;100855.12;;;;-57
2020/03/07 12:31:16;;;;;;;2.25;1.99;;;;;;;20.02;38.30;100848.69;;;;-57
2020/03/07 12:34:16;;;;;;;2.99;1.98;;;;;;;20.03;38.22;100850.14;;;;-57
2020/03/07 12:37:16;;;;;;;2.27;1.99;;;;;;;20.05;38.27;100851.01;;;;-57
2020/03/07 12:40:16;;;;;;;2.09;1.89;;;;;;;20.07;38.31;100850.60;;;;-57
2020/03/07 12:43:16;;;;;;;1.94;1.81;;;;;;;20.08;38.28;100852.83;;;;-57
2020/03/07 12:46:16;;;;;;;4.15;1.89;;;;;;;20.11;38.47;100853.71;;;;-57
2020/03/07 12:49:16;;;;;;;2.55;1.87;;;;;;;20.12;38.80;100851.19;;;;-56
2020/03/07 12:52:16;;;;;;;2.10;1.80;;;;;;;20.16;38.97;100851.60;;;;-55
2020/03/07 12:55:16;;;;;;;2.31;1.89;;;;;;;20.19;39.11;100854.66;;;;-53
2020/03/07 12:58:16;;;;;;;2.57;1.81;;;;;;;20.22;39.17;100856.26;;;;-57
2020/03/07 13:01:16;;;;;;;2.08;1.88;;;;;;;20.19;39.08;100855.21;;;;-57
2020/03/07 13:04:16;;;;;;;2.88;1.80;;;;;;;20.22;39.20;100859.00;;;;-57
2020/03/07 13:07:16;;;;;;;2.37;1.84;;;;;;;20.25;39.24;100861.27;;;;-61
2020/03/07 13:10:16;;;;;;;2.03;1.82;;;;;;;20.26;39.02;100860.27;;;;-64
2020/03/07 13:13:16;;;;;;;2.87;1.90;;;;;;;20.27;39.01;100861.97;;;;-63
2020/03/07 13:16:16;;;;;;;2.36;1.65;;;;;;;20.31;39.18;100863.80;;;;-63
2020/03/07 13:19:16;;;;;;;2.17;1.92;;;;;;;20.33;39.28;100870.55;;;;-59
2020/03/07 13:22:16;;;;;;;2.19;1.96;;;;;;;20.37;39.16;100870.12;;;;-46
2020/03/07 13:25:16;;;;;;;2.40;1.79;;;;;;;20.39;39.18;100869.55;;;;-45
2020/03/07 13:28:16;;;;;;;3.37;1.90;;;;;;;20.42;39.07;100879.02;;;;-50
2020/03/07 13:31:15;;;;;;;2.74;1.81;;;;;;;20.44;39.22;100879.17;;;;-49
2020/03/07 13:34:16;;;;;;;3.55;1.99;;;;;;;20.46;39.18;100884.98;;;;-53
2020/03/07 13:37:16;;;;;;;2.09;1.80;;;;;;;20.49;39.08;100879.04;;;;-51
2020/03/07 13:40:16;;;;;;;2.28;1.78;;;;;;;20.49;38.86;100874.98;;;;-50
2020/03/07 13:43:16;;;;;;;2.13;1.90;;;;;;;20.50;39.12;100875.33;;;;-51
2020/03/07 13:46:16;;;;;;;2.53;1.85;;;;;;;20.51;39.16;100876.83;;;;-53
2020/03/07 13:49:16;;;;;;;2.39;1.85;;;;;;;20.51;38.81;100880.14;;;;-53
2020/03/07 13:52:16;;;;;;;2.00;1.80;;;;;;;20.53;39.20;100889.56;;;;-54
2020/03/07 13:55:16;;;;;;;2.37;1.96;;;;;;;20.55;38.61;100887.41;;;;-47
2020/03/07 13:58:16;;;;;;;2.82;1.89;;;;;;;20.55;38.76;100886.30;;;;-47
2020/03/07 14:01:16;;;;;;;3.70;1.78;;;;;;;20.55;38.50;100885.86;;;;-49
2020/03/07 14:04:16;;;;;;;2.85;1.82;;;;;;;20.53;38.43;100885.91;;;;-52
2020/03/07 14:07:16;;;;;;;2.79;1.80;;;;;;;20.54;38.30;100892.06;;;;-51
2020/03/07 14:10:15;;;;;;;2.69;1.88;;;;;;;20.55;38.50;100894.36;;;;-52
2020/03/07 14:13:16;;;;;;;2.92;1.81;;;;;;;20.55;38.37;100904.09;;;;-59
2020/03/07 14:16:16;;;;;;;2.73;1.80;;;;;;;20.54;38.20;100906.62;;;;-59
2020/03/07 14:19:16;;;;;;;2.00;1.71;;;;;;;20.53;38.36;100909.13;;;;-59
2020/03/07 14:22:16;;;;;;;2.24;1.79;;;;;;;20.56;38.28;100912.47;;;;-57
2020/03/07 14:25:16;;;;;;;1.95;1.75;;;;;;;20.58;38.37;100920.74;;;;-57
2020/03/07 14:28:16;;;;;;;1.89;1.70;;;;;;;20.55;38.14;100921.81;;;;-48
2020/03/07 14:31:16;;;;;;;2.67;1.69;;;;;;;20.56;38.35;100925.45;;;;-47
2020/03/07 14:34:16;;;;;;;1.90;1.70;;;;;;;20.54;38.19;100925.23;;;;-47
2020/03/07 14:37:16;;;;;;;1.81;1.68;;;;;;;20.55;38.36;100925.08;;;;-47
2020/03/07 14:40:16;;;;;;;2.17;1.73;;;;;;;20.55;38.26;100924.50;;;;-47
2020/03/07 14:43:16;;;;;;;1.72;1.62;;;;;;;20.54;38.24;100924.22;;;;-48
2020/03/07 14:46:16;;;;;;;1.81;1.70;;;;;;;20.53;38.24;100924.17;;;;-47
2020/03/07 14:49:16;;;;;;;2.34;1.83;;;;;;;20.53;38.07;100928.53;;;;-47
2020/03/07 14:52:16;;;;;;;1.86;1.61;;;;;;;20.54;38.22;100930.28;;;;-48
2020/03/07 14:55:16;;;;;;;2.31;1.80;;;;;;;20.54;38.10;100931.80;;;;-47
2020/03/07 14:58:16;;;;;;;1.73;1.60;;;;;;;20.53;38.17;100930.11;;;;-48
2020/03/07 15:01:16;;;;;;;1.69;1.59;;;;;;;20.54;38.14;100930.95;;;;-47
2020/03/07 15:04:16;;;;;;;1.83;1.70;;;;;;;20.53;38.08;100933.97;;;;-47
2020/03/07 15:07:17;;;;;;;2.53;1.79;;;;;;;20.53;38.03;100932.56;;;;-46
2020/03/07 15:10:15;;;;;;;2.27;1.70;;;;;;;20.57;38.33;100931.94;;;;-51
2020/03/07 15:13:16;;;;;;;2.69;1.71;;;;;;;20.59;38.58;100928.45;;;;-51
2020/03/07 15:16:16;;;;;;;2.28;1.70;;;;;;;20.63;38.84;100926.45;;;;-53
2020/03/07 15:19:16;;;;;;;2.21;1.80;;;;;;;20.66;38.84;100924.92;;;;-46
2020/03/07 15:22:16;;;;;;;1.74;1.61;;;;;;;20.67;38.84;100921.28;;;;-48
2020/03/07 15:25:16;;;;;;;1.82;1.69;;;;;;;20.71;38.92;100929.01;;;;-46
2020/03/07 15:28:16;;;;;;;1.80;1.60;;;;;;;20.72;39.08;100934.27;;;;-47
2020/03/07 15:31:16;;;;;;;2.13;1.71;;;;;;;20.72;39.03;100932.59;;;;-49
2020/03/07 15:34:16;;;;;;;1.85;1.71;;;;;;;20.74;39.09;100939.13;;;;-49
2020/03/07 15:37:16;;;;;;;2.18;1.81;;;;;;;20.72;38.70;100938.47;;;;-49
2020/03/07 15:40:16;;;;;;;1.99;1.61;;;;;;;20.75;39.23;100944.61;;;;-49
2020/03/07 15:43:16;;;;;;;1.97;1.73;;;;;;;20.75;38.92;100947.22;;;;-49
2020/03/07 15:46:16;;;;;;;2.30;1.77;;;;;;;20.74;38.94;100949.30;;;;-49
2020/03/07 15:49:16;;;;;;;2.93;1.78;;;;;;;20.78;39.69;100951.06;;;;-54
2020/03/07 15:52:16;;;;;;;4.91;1.78;;;;;;;20.80;40.10;100949.68;;;;-51
2020/03/07 15:55:16;;;;;;;4.93;1.99;;;;;;;20.81;39.85;100954.26;;;;-52
2020/03/07 15:58:16;;;;;;;3.20;1.79;;;;;;;20.83;39.79;100952.11;;;;-53
2020/03/07 16:01:16;;;;;;;2.72;1.92;;;;;;;20.81;39.42;100954.89;;;;-51
2020/03/07 16:04:16;;;;;;;7.50;2.37;;;;;;;20.82;38.95;100959.01;;;;-46
2020/03/07 16:07:16;;;;;;;3.98;2.05;;;;;;;20.84;39.13;100961.02;;;;-50
2020/03/07 16:10:16;;;;;;;7.40;2.44;;;;;;;20.83;38.99;100964.03;;;;-51
2020/03/07 16:13:16;;;;;;;5.17;2.20;;;;;;;20.84;38.82;100960.84;;;;-51
2020/03/07 16:16:16;;;;;;;6.81;2.19;;;;;;;20.88;39.12;100966.57;;;;-46
2020/03/07 16:19:16;;;;;;;4.01;1.95;;;;;;;20.90;39.07;100969.02;;;;-48
2020/03/07 16:22:16;;;;;;;3.93;1.91;;;;;;;20.92;39.01;100971.52;;;;-48
2020/03/07 16:25:16;;;;;;;4.24;2.00;;;;;;;20.93;39.03;100973.52;;;;-50
2020/03/07 16:28:16;;;;;;;2.34;1.83;;;;;;;20.95;38.98;100974.62;;;;-55
2020/03/07 16:31:16;;;;;;;3.30;1.93;;;;;;;20.97;39.04;100978.31;;;;-52
2020/03/07 16:34:16;;;;;;;3.02;1.95;;;;;;;20.97;38.73;100977.64;;;;-48
2020/03/07 16:37:16;;;;;;;3.79;1.99;;;;;;;21.00;39.02;100979.05;;;;-50
2020/03/07 16:40:16;;;;;;;3.25;1.83;;;;;;;21.00;39.01;100986.72;;;;-51
2020/03/07 16:43:16;;;;;;;4.19;2.05;;;;;;;21.01;38.97;100987.84;;;;-51
2020/03/07 16:46:16;;;;;;;2.69;1.97;;;;;;;21.01;38.95;100993.31;;;;-50
2020/03/07 16:49:16;;;;;;;2.87;1.95;;;;;;;21.03;39.01;100998.67;;;;-54